Vandergrift, Pennsylvania
Current Conditions -  °F | °C
As of 4:15 AM on Friday 19 Dec 2014 (Local Time) from KBTP Reporting Station
Overcast Overcast  
Wind Chill: 18°   Ceiling: 500
Heat Index: 27°   Visibility: 3mi
Dew Point: 27°   Wind: 8mph
Humidity: 100%   Direction: 260°W
Pressure: 30.14"   Gusts: NA
Location:  40.6°N, 79.57°W
Report Text: KBTP 190915Z AUTO 26007KT 3SM OVC005 M03/M03 A3014 RMK AO1
Loading
Personal Weather Stations






























Interactive Weather Map New forecast layout! Learn more

10-Day Weather Forecast

Advertisements
Track Severe Weather on mobile